AKC weather

Akron Fulton International Airport
Akron, Ohio, United States

Public forecast

Using degrees Fahrenheit for public forecast. Weather courtesy of forecast.io.

Current aviation weather report (METAR) for Akron Fulton International Airport

Retrieved 2019/11/20 03:37 UTC (7 minutes ago):

KAKR 200337Z AUTO 00000KT 4SM BR BKN008 OVC016 05/03 A2992 RMK AO2 CIG 006V012 T00500033

Closest aviation forecast (TAF) to Akron Fulton International Airport

Closest forecast is Akron Canton Regional Airport, 7.4 nm (13.7 km) S. Retrieved 2019-11-20 00:34 UTC (3 hours ago):

TAF KCAK 192332Z 2000/2024 00000KT 5SM BR OVC025 FM201500 00000KT P6SM OVC035 FM202300 00000KT P6SM BKN040